sensor_id;sensor_type;location;lat;lon;timestamp;P1;durP1;ratioP1;P2;durP2;ratioP2
28772;SDS011;15925;51.222;5.678;2023-06-14T00:01:44;5.15;;;3.15;;
28772;SDS011;15925;51.222;5.678;2023-06-14T00:04:13;10.68;;;3.58;;
28772;SDS011;15925;51.222;5.678;2023-06-14T00:06:42;5.45;;;2.83;;
28772;SDS011;15925;51.222;5.678;2023-06-14T00:09:10;7.22;;;2.97;;
28772;SDS011;15925;51.222;5.678;2023-06-14T00:11:40;6.32;;;3.30;;
28772;SDS011;15925;51.222;5.678;2023-06-14T00:14:06;10.23;;;3.30;;
28772;SDS011;15925;51.222;5.678;2023-06-14T00:16:32;9.13;;;4.13;;
28772;SDS011;15925;51.222;5.678;2023-06-14T00:19:00;5.60;;;2.85;;
28772;SDS011;15925;51.222;5.678;2023-06-14T00:21:29;5.80;;;3.03;;
28772;SDS011;15925;51.222;5.678;2023-06-14T00:23:55;7.07;;;3.70;;
28772;SDS011;15925;51.222;5.678;2023-06-14T00:26:22;8.70;;;3.10;;
28772;SDS011;15925;51.222;5.678;2023-06-14T00:28:48;5.70;;;3.53;;
28772;SDS011;15925;51.222;5.678;2023-06-14T00:31:14;5.93;;;3.10;;
28772;SDS011;15925;51.222;5.678;2023-06-14T00:33:40;3.60;;;2.70;;
28772;SDS011;15925;51.222;5.678;2023-06-14T00:36:06;8.23;;;3.37;;
28772;SDS011;15925;51.222;5.678;2023-06-14T00:38:32;5.65;;;3.10;;
28772;SDS011;15925;51.222;5.678;2023-06-14T00:40:57;5.85;;;2.95;;
28772;SDS011;15925;51.222;5.678;2023-06-14T00:43:23;9.20;;;3.58;;
28772;SDS011;15925;51.222;5.678;2023-06-14T00:45:49;7.22;;;3.17;;
28772;SDS011;15925;51.222;5.678;2023-06-14T00:50:42;7.30;;;3.10;;
28772;SDS011;15925;51.222;5.678;2023-06-14T00:53:11;8.13;;;3.42;;
28772;SDS011;15925;51.222;5.678;2023-06-14T00:55:38;7.10;;;3.15;;
28772;SDS011;15925;51.222;5.678;2023-06-14T00:58:03;6.10;;;3.27;;
28772;SDS011;15925;51.222;5.678;2023-06-14T01:00:29;4.93;;;3.30;;
28772;SDS011;15925;51.222;5.678;2023-06-14T01:02:55;5.57;;;3.03;;
28772;SDS011;15925;51.222;5.678;2023-06-14T01:05:22;6.45;;;3.90;;
28772;SDS011;15925;51.222;5.678;2023-06-14T01:15:45;6.97;;;3.63;;
28772;SDS011;15925;51.222;5.678;2023-06-14T01:18:12;4.63;;;3.15;;
28772;SDS011;15925;51.222;5.678;2023-06-14T01:20:44;6.30;;;3.15;;
28772;SDS011;15925;51.222;5.678;2023-06-14T01:23:18;5.20;;;2.97;;
28772;SDS011;15925;51.222;5.678;2023-06-14T01:25:45;6.47;;;2.95;;
28772;SDS011;15925;51.222;5.678;2023-06-14T01:28:12;6.10;;;2.92;;
28772;SDS011;15925;51.222;5.678;2023-06-14T01:30:40;6.47;;;3.35;;
28772;SDS011;15925;51.222;5.678;2023-06-14T01:33:13;3.50;;;2.70;;
28772;SDS011;15925;51.222;5.678;2023-06-14T01:35:43;8.35;;;3.80;;
28772;SDS011;15925;51.222;5.678;2023-06-14T01:38:15;4.90;;;2.33;;
28772;SDS011;15925;51.222;5.678;2023-06-14T01:40:44;6.05;;;3.45;;
28772;SDS011;15925;51.222;5.678;2023-06-14T01:43:11;5.65;;;3.42;;
28772;SDS011;15925;51.222;5.678;2023-06-14T01:45:38;7.50;;;2.90;;
28772;SDS011;15925;51.222;5.678;2023-06-14T01:48:07;4.13;;;2.80;;
28772;SDS011;15925;51.222;5.678;2023-06-14T01:52:59;4.05;;;2.78;;
28772;SDS011;15925;51.222;5.678;2023-06-14T01:55:25;13.32;;;3.35;;
28772;SDS011;15925;51.222;5.678;2023-06-14T01:57:51;8.60;;;2.88;;
28772;SDS011;15925;51.222;5.678;2023-06-14T02:00:18;5.22;;;2.60;;
28772;SDS011;15925;51.222;5.678;2023-06-14T02:02:44;6.38;;;2.67;;
28772;SDS011;15925;51.222;5.678;2023-06-14T02:05:10;9.27;;;3.42;;
28772;SDS011;15925;51.222;5.678;2023-06-14T02:07:38;7.20;;;2.92;;
28772;SDS011;15925;51.222;5.678;2023-06-14T02:10:04;7.50;;;2.88;;
28772;SDS011;15925;51.222;5.678;2023-06-14T02:12:30;10.48;;;3.47;;
28772;SDS011;15925;51.222;5.678;2023-06-14T02:14:56;5.15;;;3.13;;
28772;SDS011;15925;51.222;5.678;2023-06-14T02:17:23;5.43;;;2.95;;
28772;SDS011;15925;51.222;5.678;2023-06-14T02:19:49;6.03;;;2.75;;
28772;SDS011;15925;51.222;5.678;2023-06-14T02:22:15;11.93;;;3.35;;
28772;SDS011;15925;51.222;5.678;2023-06-14T02:24:42;7.40;;;3.45;;
28772;SDS011;15925;51.222;5.678;2023-06-14T02:27:08;8.13;;;3.42;;
28772;SDS011;15925;51.222;5.678;2023-06-14T02:29:36;5.43;;;2.85;;
28772;SDS011;15925;51.222;5.678;2023-06-14T02:32:03;7.47;;;3.47;;
28772;SDS011;15925;51.222;5.678;2023-06-14T02:34:30;7.95;;;2.65;;
28772;SDS011;15925;51.222;5.678;2023-06-14T02:36:56;7.07;;;2.95;;
28772;SDS011;15925;51.222;5.678;2023-06-14T02:39:22;6.82;;;3.30;;
28772;SDS011;15925;51.222;5.678;2023-06-14T02:41:48;8.77;;;3.17;;
28772;SDS011;15925;51.222;5.678;2023-06-14T02:44:17;7.28;;;3.55;;
28772;SDS011;15925;51.222;5.678;2023-06-14T02:46:44;5.68;;;3.63;;
28772;SDS011;15925;51.222;5.678;2023-06-14T02:49:13;13.73;;;3.63;;
28772;SDS011;15925;51.222;5.678;2023-06-14T02:51:39;17.27;;;3.50;;
28772;SDS011;15925;51.222;5.678;2023-06-14T02:54:05;8.83;;;4.33;;
28772;SDS011;15925;51.222;5.678;2023-06-14T02:56:31;9.57;;;3.47;;
28772;SDS011;15925;51.222;5.678;2023-06-14T02:58:56;15.37;;;3.50;;
28772;SDS011;15925;51.222;5.678;2023-06-14T03:01:25;11.15;;;4.22;;
28772;SDS011;15925;51.222;5.678;2023-06-14T03:04:01;8.13;;;3.60;;
28772;SDS011;15925;51.222;5.678;2023-06-14T03:06:30;10.85;;;3.05;;
28772;SDS011;15925;51.222;5.678;2023-06-14T03:08:57;7.72;;;2.63;;
28772;SDS011;15925;51.222;5.678;2023-06-14T03:11:30;5.32;;;3.15;;
28772;SDS011;15925;51.222;5.678;2023-06-14T03:13:57;6.07;;;3.40;;
28772;SDS011;15925;51.222;5.678;2023-06-14T03:16:25;8.32;;;3.92;;
28772;SDS011;15925;51.222;5.678;2023-06-14T03:18:54;8.05;;;3.28;;
28772;SDS011;15925;51.222;5.678;2023-06-14T03:21:23;11.05;;;3.20;;
28772;SDS011;15925;51.222;5.678;2023-06-14T03:23:50;10.85;;;4.03;;
28772;SDS011;15925;51.222;5.678;2023-06-14T03:26:16;10.82;;;3.45;;
28772;SDS011;15925;51.222;5.678;2023-06-14T03:28:45;7.30;;;2.92;;
28772;SDS011;15925;51.222;5.678;2023-06-14T03:31:11;7.43;;;3.97;;
28772;SDS011;15925;51.222;5.678;2023-06-14T03:33:38;8.98;;;2.63;;
28772;SDS011;15925;51.222;5.678;2023-06-14T03:38:31;8.20;;;3.50;;
28772;SDS011;15925;51.222;5.678;2023-06-14T03:43:24;7.63;;;2.92;;
28772;SDS011;15925;51.222;5.678;2023-06-14T03:45:50;18.27;;;3.95;;
28772;SDS011;15925;51.222;5.678;2023-06-14T03:48:17;16.85;;;3.20;;
28772;SDS011;15925;51.222;5.678;2023-06-14T03:50:43;6.73;;;3.40;;
28772;SDS011;15925;51.222;5.678;2023-06-14T03:53:10;7.90;;;3.45;;
28772;SDS011;15925;51.222;5.678;2023-06-14T03:55:39;10.82;;;3.45;;
28772;SDS011;15925;51.222;5.678;2023-06-14T03:58:06;10.95;;;3.72;;
28772;SDS011;15925;51.222;5.678;2023-06-14T04:00:35;6.03;;;3.50;;
28772;SDS011;15925;51.222;5.678;2023-06-14T04:03:01;11.23;;;3.08;;
28772;SDS011;15925;51.222;5.678;2023-06-14T04:05:28;6.80;;;3.30;;
28772;SDS011;15925;51.222;5.678;2023-06-14T04:07:55;8.63;;;3.35;;
28772;SDS011;15925;51.222;5.678;2023-06-14T04:10:22;5.50;;;2.63;;
28772;SDS011;15925;51.222;5.678;2023-06-14T04:12:48;6.30;;;3.10;;
28772;SDS011;15925;51.222;5.678;2023-06-14T04:15:16;6.43;;;3.60;;
28772;SDS011;15925;51.222;5.678;2023-06-14T04:17:41;6.72;;;3.45;;
28772;SDS011;15925;51.222;5.678;2023-06-14T04:20:07;6.50;;;3.00;;
28772;SDS011;15925;51.222;5.678;2023-06-14T04:22:35;6.47;;;3.22;;
28772;SDS011;15925;51.222;5.678;2023-06-14T04:25:02;9.57;;;4.78;;
28772;SDS011;15925;51.222;5.678;2023-06-14T04:27:32;10.30;;;3.70;;
28772;SDS011;15925;51.222;5.678;2023-06-14T04:30:01;5.70;;;3.85;;
28772;SDS011;15925;51.222;5.678;2023-06-14T04:32:35;9.10;;;3.17;;
28772;SDS011;15925;51.222;5.678;2023-06-14T04:35:06;4.53;;;2.83;;
28772;SDS011;15925;51.222;5.678;2023-06-14T04:37:33;8.60;;;3.90;;
28772;SDS011;15925;51.222;5.678;2023-06-14T04:40:00;6.10;;;3.42;;
28772;SDS011;15925;51.222;5.678;2023-06-14T04:42:26;7.60;;;4.10;;
28772;SDS011;15925;51.222;5.678;2023-06-14T04:44:57;12.00;;;3.78;;
28772;SDS011;15925;51.222;5.678;2023-06-14T04:47:23;10.95;;;4.05;;
28772;SDS011;15925;51.222;5.678;2023-06-14T04:49:56;10.88;;;3.42;;
28772;SDS011;15925;51.222;5.678;2023-06-14T04:52:22;11.68;;;2.88;;
28772;SDS011;15925;51.222;5.678;2023-06-14T04:54:52;6.50;;;3.47;;
28772;SDS011;15925;51.222;5.678;2023-06-14T04:57:21;10.68;;;3.65;;
28772;SDS011;15925;51.222;5.678;2023-06-14T04:59:48;11.75;;;3.17;;
28772;SDS011;15925;51.222;5.678;2023-06-14T05:02:20;8.70;;;3.47;;
28772;SDS011;15925;51.222;5.678;2023-06-14T05:04:47;17.15;;;3.92;;
28772;SDS011;15925;51.222;5.678;2023-06-14T05:07:13;22.03;;;3.53;;
28772;SDS011;15925;51.222;5.678;2023-06-14T05:09:40;7.57;;;3.67;;
28772;SDS011;15925;51.222;5.678;2023-06-14T05:12:06;6.00;;;3.45;;
28772;SDS011;15925;51.222;5.678;2023-06-14T05:14:35;7.63;;;4.15;;
28772;SDS011;15925;51.222;5.678;2023-06-14T05:17:02;7.72;;;4.40;;
28772;SDS011;15925;51.222;5.678;2023-06-14T05:19:28;8.95;;;4.35;;
28772;SDS011;15925;51.222;5.678;2023-06-14T05:21:54;9.90;;;4.00;;
28772;SDS011;15925;51.222;5.678;2023-06-14T05:24:20;7.23;;;3.33;;
28772;SDS011;15925;51.222;5.678;2023-06-14T05:26:46;7.38;;;3.75;;
28772;SDS011;15925;51.222;5.678;2023-06-14T05:29:12;6.63;;;2.83;;
28772;SDS011;15925;51.222;5.678;2023-06-14T05:31:38;8.13;;;3.47;;
28772;SDS011;15925;51.222;5.678;2023-06-14T05:34:04;9.05;;;3.53;;
28772;SDS011;15925;51.222;5.678;2023-06-14T05:36:29;8.32;;;3.45;;
28772;SDS011;15925;51.222;5.678;2023-06-14T05:38:55;5.65;;;3.25;;
28772;SDS011;15925;51.222;5.678;2023-06-14T05:41:24;11.20;;;3.45;;
28772;SDS011;15925;51.222;5.678;2023-06-14T05:43:51;8.23;;;3.58;;
28772;SDS011;15925;51.222;5.678;2023-06-14T05:48:47;16.10;;;3.88;;
28772;SDS011;15925;51.222;5.678;2023-06-14T05:51:13;8.90;;;3.42;;
28772;SDS011;15925;51.222;5.678;2023-06-14T05:53:39;7.65;;;3.38;;
28772;SDS011;15925;51.222;5.678;2023-06-14T05:56:05;11.27;;;3.40;;
28772;SDS011;15925;51.222;5.678;2023-06-14T05:58:31;9.53;;;3.27;;
28772;SDS011;15925;51.222;5.678;2023-06-14T06:00:57;10.27;;;4.00;;
28772;SDS011;15925;51.222;5.678;2023-06-14T06:03:23;6.93;;;3.43;;
28772;SDS011;15925;51.222;5.678;2023-06-14T06:05:48;8.50;;;3.75;;
28772;SDS011;15925;51.222;5.678;2023-06-14T06:08:14;7.87;;;3.30;;
28772;SDS011;15925;51.222;5.678;2023-06-14T06:10:41;6.10;;;3.28;;
28772;SDS011;15925;51.222;5.678;2023-06-14T06:15:34;21.73;;;2.95;;
28772;SDS011;15925;51.222;5.678;2023-06-14T06:20:26;6.40;;;2.92;;
28772;SDS011;15925;51.222;5.678;2023-06-14T06:22:53;8.73;;;2.88;;
28772;SDS011;15925;51.222;5.678;2023-06-14T06:25:19;10.80;;;3.60;;
28772;SDS011;15925;51.222;5.678;2023-06-14T06:27:45;8.48;;;2.85;;
28772;SDS011;15925;51.222;5.678;2023-06-14T06:30:11;6.67;;;2.50;;
28772;SDS011;15925;51.222;5.678;2023-06-14T06:32:37;4.63;;;2.65;;
28772;SDS011;15925;51.222;5.678;2023-06-14T06:35:03;12.70;;;3.28;;
28772;SDS011;15925;51.222;5.678;2023-06-14T06:37:31;9.82;;;2.65;;
28772;SDS011;15925;51.222;5.678;2023-06-14T06:39:57;11.43;;;2.30;;
28772;SDS011;15925;51.222;5.678;2023-06-14T06:42:23;5.65;;;2.63;;
28772;SDS011;15925;51.222;5.678;2023-06-14T06:44:50;13.25;;;2.33;;
28772;SDS011;15925;51.222;5.678;2023-06-14T06:47:16;9.97;;;3.47;;
28772;SDS011;15925;51.222;5.678;2023-06-14T06:49:42;4.00;;;2.60;;
28772;SDS011;15925;51.222;5.678;2023-06-14T06:52:08;5.80;;;2.60;;
28772;SDS011;15925;51.222;5.678;2023-06-14T06:54:33;3.70;;;2.00;;
28772;SDS011;15925;51.222;5.678;2023-06-14T06:56:59;4.97;;;1.73;;
28772;SDS011;15925;51.222;5.678;2023-06-14T06:59:27;3.60;;;2.00;;
28772;SDS011;15925;51.222;5.678;2023-06-14T07:01:52;5.32;;;2.40;;
28772;SDS011;15925;51.222;5.678;2023-06-14T07:04:18;4.22;;;2.03;;
28772;SDS011;15925;51.222;5.678;2023-06-14T07:06:46;4.18;;;2.17;;
28772;SDS011;15925;51.222;5.678;2023-06-14T07:09:12;6.50;;;1.95;;
28772;SDS011;15925;51.222;5.678;2023-06-14T07:11:40;5.22;;;2.10;;
28772;SDS011;15925;51.222;5.678;2023-06-14T07:14:07;6.88;;;2.40;;
28772;SDS011;15925;51.222;5.678;2023-06-14T07:16:32;8.82;;;2.22;;
28772;SDS011;15925;51.222;5.678;2023-06-14T07:18:58;4.38;;;1.92;;
28772;SDS011;15925;51.222;5.678;2023-06-14T07:21:25;6.35;;;2.08;;
28772;SDS011;15925;51.222;5.678;2023-06-14T07:23:54;2.97;;;1.35;;
28772;SDS011;15925;51.222;5.678;2023-06-14T07:26:21;8.02;;;2.42;;
28772;SDS011;15925;51.222;5.678;2023-06-14T07:31:14;6.45;;;2.25;;
28772;SDS011;15925;51.222;5.678;2023-06-14T07:33:41;7.20;;;2.00;;
28772;SDS011;15925;51.222;5.678;2023-06-14T07:36:07;4.00;;;2.28;;
28772;SDS011;15925;51.222;5.678;2023-06-14T07:38:33;1.52;;;1.13;;
28772;SDS011;15925;51.222;5.678;2023-06-14T07:41:00;5.22;;;2.08;;
28772;SDS011;15925;51.222;5.678;2023-06-14T07:43:26;1.85;;;1.60;;
28772;SDS011;15925;51.222;5.678;2023-06-14T07:45:51;4.10;;;1.77;;
28772;SDS011;15925;51.222;5.678;2023-06-14T07:48:18;2.45;;;1.92;;
28772;SDS011;15925;51.222;5.678;2023-06-14T07:50:43;3.38;;;1.52;;
28772;SDS011;15925;51.222;5.678;2023-06-14T07:53:10;2.38;;;1.67;;
28772;SDS011;15925;51.222;5.678;2023-06-14T07:55:35;8.18;;;1.73;;
28772;SDS011;15925;51.222;5.678;2023-06-14T07:58:06;7.50;;;1.70;;
28772;SDS011;15925;51.222;5.678;2023-06-14T08:00:32;3.17;;;1.70;;
28772;SDS011;15925;51.222;5.678;2023-06-14T08:02:58;6.27;;;1.70;;
28772;SDS011;15925;51.222;5.678;2023-06-14T08:05:24;5.45;;;1.85;;
28772;SDS011;15925;51.222;5.678;2023-06-14T08:07:51;4.30;;;2.28;;
28772;SDS011;15925;51.222;5.678;2023-06-14T08:10:17;14.60;;;1.80;;
28772;SDS011;15925;51.222;5.678;2023-06-14T08:12:43;10.88;;;2.38;;
28772;SDS011;15925;51.222;5.678;2023-06-14T08:15:09;4.22;;;1.50;;
28772;SDS011;15925;51.222;5.678;2023-06-14T08:17:35;5.85;;;2.15;;
28772;SDS011;15925;51.222;5.678;2023-06-14T08:20:01;12.37;;;1.90;;
28772;SDS011;15925;51.222;5.678;2023-06-14T08:22:29;8.32;;;1.75;;
28772;SDS011;15925;51.222;5.678;2023-06-14T08:24:57;4.50;;;1.35;;
28772;SDS011;15925;51.222;5.678;2023-06-14T08:27:23;14.17;;;1.93;;
28772;SDS011;15925;51.222;5.678;2023-06-14T08:29:49;3.47;;;1.65;;
28772;SDS011;15925;51.222;5.678;2023-06-14T08:32:15;13.50;;;1.60;;
28772;SDS011;15925;51.222;5.678;2023-06-14T08:34:41;11.10;;;2.00;;
28772;SDS011;15925;51.222;5.678;2023-06-14T08:37:07;3.03;;;1.45;;
28772;SDS011;15925;51.222;5.678;2023-06-14T08:39:33;5.80;;;1.20;;
28772;SDS011;15925;51.222;5.678;2023-06-14T08:41:58;3.38;;;1.05;;
28772;SDS011;15925;51.222;5.678;2023-06-14T08:44:26;7.97;;;1.42;;
28772;SDS011;15925;51.222;5.678;2023-06-14T08:46:52;2.93;;;1.13;;
28772;SDS011;15925;51.222;5.678;2023-06-14T08:49:24;1.42;;;1.17;;
28772;SDS011;15925;51.222;5.678;2023-06-14T08:51:53;6.40;;;1.75;;
28772;SDS011;15925;51.222;5.678;2023-06-14T08:54:22;2.38;;;1.25;;
28772;SDS011;15925;51.222;5.678;2023-06-14T08:56:52;5.65;;;1.48;;
28772;SDS011;15925;51.222;5.678;2023-06-14T08:59:23;1.88;;;0.88;;
28772;SDS011;15925;51.222;5.678;2023-06-14T09:01:51;2.95;;;1.10;;
28772;SDS011;15925;51.222;5.678;2023-06-14T09:04:18;1.38;;;0.93;;
28772;SDS011;15925;51.222;5.678;2023-06-14T09:06:45;5.53;;;1.10;;
28772;SDS011;15925;51.222;5.678;2023-06-14T09:09:10;3.15;;;1.77;;
28772;SDS011;15925;51.222;5.678;2023-06-14T09:11:37;1.95;;;1.25;;
28772;SDS011;15925;51.222;5.678;2023-06-14T09:14:07;3.65;;;1.10;;
28772;SDS011;15925;51.222;5.678;2023-06-14T09:16:32;2.20;;;0.85;;
28772;SDS011;15925;51.222;5.678;2023-06-14T09:18:59;1.25;;;0.82;;
28772;SDS011;15925;51.222;5.678;2023-06-14T09:21:24;2.33;;;0.95;;
28772;SDS011;15925;51.222;5.678;2023-06-14T09:23:50;3.33;;;1.08;;
28772;SDS011;15925;51.222;5.678;2023-06-14T09:26:18;3.08;;;1.00;;
28772;SDS011;15925;51.222;5.678;2023-06-14T09:31:11;3.50;;;0.80;;
28772;SDS011;15925;51.222;5.678;2023-06-14T09:33:38;1.08;;;0.63;;
28772;SDS011;15925;51.222;5.678;2023-06-14T09:36:11;1.40;;;0.65;;
28772;SDS011;15925;51.222;5.678;2023-06-14T09:38:41;1.05;;;0.63;;
28772;SDS011;15925;51.222;5.678;2023-06-14T09:41:07;0.88;;;0.50;;
28772;SDS011;15925;51.222;5.678;2023-06-14T09:43:32;4.85;;;0.80;;
28772;SDS011;15925;51.222;5.678;2023-06-14T09:46:00;7.65;;;1.17;;
28772;SDS011;15925;51.222;5.678;2023-06-14T09:48:26;1.55;;;0.82;;
28772;SDS011;15925;51.222;5.678;2023-06-14T09:50:52;0.98;;;0.47;;
28772;SDS011;15925;51.222;5.678;2023-06-14T09:53:23;8.02;;;0.90;;
28772;SDS011;15925;51.222;5.678;2023-06-14T09:55:50;1.20;;;0.60;;
28772;SDS011;15925;51.222;5.678;2023-06-14T09:58:20;4.07;;;0.43;;
28772;SDS011;15925;51.222;5.678;2023-06-14T10:00:48;0.90;;;0.80;;
28772;SDS011;15925;51.222;5.678;2023-06-14T10:03:19;1.08;;;0.40;;
28772;SDS011;15925;51.222;5.678;2023-06-14T10:05:50;3.03;;;0.47;;
28772;SDS011;15925;51.222;5.678;2023-06-14T10:10:43;2.05;;;0.70;;
28772;SDS011;15925;51.222;5.678;2023-06-14T10:13:10;1.13;;;0.50;;
28772;SDS011;15925;51.222;5.678;2023-06-14T10:21:05;2.58;;;1.00;;
28772;SDS011;15925;51.222;5.678;2023-06-14T10:23:43;1.40;;;0.60;;
28772;SDS011;15925;51.222;5.678;2023-06-14T10:26:32;6.13;;;0.50;;
28772;SDS011;15925;51.222;5.678;2023-06-14T10:28:58;3.80;;;1.10;;
28772;SDS011;15925;51.222;5.678;2023-06-14T10:31:39;1.65;;;0.50;;
28772;SDS011;15925;51.222;5.678;2023-06-14T10:34:07;3.40;;;0.98;;
28772;SDS011;15925;51.222;5.678;2023-06-14T10:36:33;5.07;;;0.70;;
28772;SDS011;15925;51.222;5.678;2023-06-14T10:39:39;0.70;;;0.52;;
28772;SDS011;15925;51.222;5.678;2023-06-14T10:41:53;8.32;;;0.73;;
28772;SDS011;15925;51.222;5.678;2023-06-14T10:46:46;2.42;;;0.90;;
28772;SDS011;15925;51.222;5.678;2023-06-14T10:49:15;1.30;;;0.63;;
28772;SDS011;15925;51.222;5.678;2023-06-14T10:51:51;2.40;;;0.68;;
28772;SDS011;15925;51.222;5.678;2023-06-14T10:54:21;0.68;;;0.50;;
28772;SDS011;15925;51.222;5.678;2023-06-14T10:56:47;1.65;;;0.50;;
28772;SDS011;15925;51.222;5.678;2023-06-14T10:59:18;1.65;;;0.70;;
28772;SDS011;15925;51.222;5.678;2023-06-14T11:04:23;1.00;;;0.60;;
28772;SDS011;15925;51.222;5.678;2023-06-14T11:10:49;0.80;;;0.57;;
28772;SDS011;15925;51.222;5.678;2023-06-14T11:12:49;0.98;;;0.57;;
28772;SDS011;15925;51.222;5.678;2023-06-14T11:15:19;1.63;;;0.85;;
28772;SDS011;15925;51.222;5.678;2023-06-14T11:17:51;0.52;;;0.50;;
28772;SDS011;15925;51.222;5.678;2023-06-14T11:20:18;1.55;;;0.60;;
28772;SDS011;15925;51.222;5.678;2023-06-14T11:25:11;11.55;;;0.98;;
28772;SDS011;15925;51.222;5.678;2023-06-14T11:27:37;1.17;;;0.60;;
28772;SDS011;15925;51.222;5.678;2023-06-14T11:30:03;3.47;;;1.20;;
28772;SDS011;15925;51.222;5.678;2023-06-14T11:32:32;1.65;;;0.55;;
28772;SDS011;15925;51.222;5.678;2023-06-14T11:34:58;5.05;;;0.70;;
28772;SDS011;15925;51.222;5.678;2023-06-14T11:37:27;2.00;;;0.65;;
28772;SDS011;15925;51.222;5.678;2023-06-14T11:39:57;4.30;;;1.17;;
28772;SDS011;15925;51.222;5.678;2023-06-14T11:42:24;2.13;;;0.90;;
28772;SDS011;15925;51.222;5.678;2023-06-14T11:44:54;0.80;;;0.68;;
28772;SDS011;15925;51.222;5.678;2023-06-14T11:47:20;7.25;;;0.80;;
28772;SDS011;15925;51.222;5.678;2023-06-14T11:49:46;5.18;;;1.02;;
28772;SDS011;15925;51.222;5.678;2023-06-14T11:52:12;0.85;;;0.82;;
28772;SDS011;15925;51.222;5.678;2023-06-14T11:54:39;0.52;;;0.52;;
28772;SDS011;15925;51.222;5.678;2023-06-14T11:57:06;3.85;;;0.82;;
28772;SDS011;15925;51.222;5.678;2023-06-14T11:59:39;0.98;;;0.57;;
28772;SDS011;15925;51.222;5.678;2023-06-14T12:02:06;6.43;;;0.85;;
28772;SDS011;15925;51.222;5.678;2023-06-14T12:04:33;3.25;;;0.93;;
28772;SDS011;15925;51.222;5.678;2023-06-14T12:07:17;1.85;;;0.80;;
28772;SDS011;15925;51.222;5.678;2023-06-14T12:12:22;12.27;;;1.05;;
28772;SDS011;15925;51.222;5.678;2023-06-14T12:14:52;1.20;;;0.88;;
28772;SDS011;15925;51.222;5.678;2023-06-14T12:17:21;1.40;;;0.52;;
28772;SDS011;15925;51.222;5.678;2023-06-14T12:19:48;1.30;;;0.52;;
28772;SDS011;15925;51.222;5.678;2023-06-14T12:22:15;2.17;;;0.68;;
28772;SDS011;15925;51.222;5.678;2023-06-14T12:24:45;0.63;;;0.50;;
28772;SDS011;15925;51.222;5.678;2023-06-14T12:27:11;1.33;;;0.80;;
28772;SDS011;15925;51.222;5.678;2023-06-14T12:29:40;8.02;;;0.80;;
28772;SDS011;15925;51.222;5.678;2023-06-14T12:32:10;16.17;;;0.65;;
28772;SDS011;15925;51.222;5.678;2023-06-14T12:34:36;4.53;;;0.68;;
28772;SDS011;15925;51.222;5.678;2023-06-14T12:37:02;1.67;;;0.70;;
28772;SDS011;15925;51.222;5.678;2023-06-14T12:39:29;1.63;;;0.68;;
28772;SDS011;15925;51.222;5.678;2023-06-14T12:41:57;1.25;;;0.60;;
28772;SDS011;15925;51.222;5.678;2023-06-14T12:44:23;0.57;;;0.32;;
28772;SDS011;15925;51.222;5.678;2023-06-14T12:46:48;0.63;;;0.50;;
28772;SDS011;15925;51.222;5.678;2023-06-14T12:49:16;1.60;;;0.75;;
28772;SDS011;15925;51.222;5.678;2023-06-14T12:51:42;2.08;;;0.57;;
28772;SDS011;15925;51.222;5.678;2023-06-14T12:54:08;14.65;;;0.90;;
28772;SDS011;15925;51.222;5.678;2023-06-14T12:56:34;0.47;;;0.47;;
28772;SDS011;15925;51.222;5.678;2023-06-14T12:59:00;2.95;;;0.82;;
28772;SDS011;15925;51.222;5.678;2023-06-14T13:01:26;3.55;;;0.70;;
28772;SDS011;15925;51.222;5.678;2023-06-14T13:03:52;1.17;;;0.55;;
28772;SDS011;15925;51.222;5.678;2023-06-14T13:06:21;14.27;;;1.10;;
28772;SDS011;15925;51.222;5.678;2023-06-14T13:08:47;6.07;;;0.77;;
28772;SDS011;15925;51.222;5.678;2023-06-14T13:11:14;1.00;;;0.60;;
28772;SDS011;15925;51.222;5.678;2023-06-14T13:13:39;0.65;;;0.43;;
28772;SDS011;15925;51.222;5.678;2023-06-14T13:16:05;2.38;;;0.70;;
28772;SDS011;15925;51.222;5.678;2023-06-14T13:18:31;5.35;;;0.63;;
28772;SDS011;15925;51.222;5.678;2023-06-14T13:20:57;0.93;;;0.30;;
28772;SDS011;15925;51.222;5.678;2023-06-14T13:23:23;0.38;;;0.22;;
28772;SDS011;15925;51.222;5.678;2023-06-14T13:25:48;2.72;;;0.30;;
28772;SDS011;15925;51.222;5.678;2023-06-14T13:28:17;3.38;;;0.80;;
28772;SDS011;15925;51.222;5.678;2023-06-14T13:30:43;0.38;;;0.30;;
28772;SDS011;15925;51.222;5.678;2023-06-14T13:33:09;4.95;;;1.05;;
28772;SDS011;15925;51.222;5.678;2023-06-14T13:35:35;1.58;;;0.50;;
28772;SDS011;15925;51.222;5.678;2023-06-14T13:38:01;4.85;;;0.50;;
28772;SDS011;15925;51.222;5.678;2023-06-14T13:40:26;0.30;;;0.30;;
28772;SDS011;15925;51.222;5.678;2023-06-14T13:42:52;8.27;;;0.82;;
28772;SDS011;15925;51.222;5.678;2023-06-14T13:45:18;1.83;;;0.82;;
28772;SDS011;15925;51.222;5.678;2023-06-14T13:47:44;5.68;;;0.50;;
28772;SDS011;15925;51.222;5.678;2023-06-14T13:50:10;1.25;;;0.60;;
28772;SDS011;15925;51.222;5.678;2023-06-14T13:52:35;0.55;;;0.50;;
28772;SDS011;15925;51.222;5.678;2023-06-14T13:55:02;0.70;;;0.43;;
28772;SDS011;15925;51.222;5.678;2023-06-14T13:57:27;1.83;;;0.63;;
28772;SDS011;15925;51.222;5.678;2023-06-14T13:59:53;1.35;;;0.57;;
28772;SDS011;15925;51.222;5.678;2023-06-14T14:02:20;1.27;;;0.50;;
28772;SDS011;15925;51.222;5.678;2023-06-14T14:04:46;1.02;;;0.60;;
28772;SDS011;15925;51.222;5.678;2023-06-14T14:07:18;0.50;;;0.40;;
28772;SDS011;15925;51.222;5.678;2023-06-14T14:09:45;4.00;;;1.27;;
28772;SDS011;15925;51.222;5.678;2023-06-14T14:12:12;4.05;;;0.40;;
28772;SDS011;15925;51.222;5.678;2023-06-14T14:14:39;0.85;;;0.47;;
28772;SDS011;15925;51.222;5.678;2023-06-14T14:17:05;1.00;;;0.50;;
28772;SDS011;15925;51.222;5.678;2023-06-14T14:19:32;0.57;;;0.40;;
28772;SDS011;15925;51.222;5.678;2023-06-14T14:21:58;0.28;;;0.28;;
28772;SDS011;15925;51.222;5.678;2023-06-14T14:24:23;1.55;;;0.40;;
28772;SDS011;15925;51.222;5.678;2023-06-14T14:26:50;2.75;;;0.43;;
28772;SDS011;15925;51.222;5.678;2023-06-14T14:29:18;1.75;;;0.25;;
28772;SDS011;15925;51.222;5.678;2023-06-14T14:31:45;4.57;;;0.43;;
28772;SDS011;15925;51.222;5.678;2023-06-14T14:34:11;8.57;;;0.65;;
28772;SDS011;15925;51.222;5.678;2023-06-14T14:39:06;1.02;;;0.68;;
28772;SDS011;15925;51.222;5.678;2023-06-14T14:41:32;0.45;;;0.38;;
28772;SDS011;15925;51.222;5.678;2023-06-14T14:43:58;1.55;;;0.88;;
28772;SDS011;15925;51.222;5.678;2023-06-14T14:46:25;1.00;;;0.50;;
28772;SDS011;15925;51.222;5.678;2023-06-14T14:48:52;0.63;;;0.52;;
28772;SDS011;15925;51.222;5.678;2023-06-14T14:51:18;1.05;;;0.47;;
28772;SDS011;15925;51.222;5.678;2023-06-14T14:53:44;0.50;;;0.28;;
28772;SDS011;15925;51.222;5.678;2023-06-14T14:56:10;3.55;;;0.70;;
28772;SDS011;15925;51.222;5.678;2023-06-14T14:58:37;0.68;;;0.45;;
28772;SDS011;15925;51.222;5.678;2023-06-14T15:01:03;6.15;;;0.80;;
28772;SDS011;15925;51.222;5.678;2023-06-14T15:03:30;0.47;;;0.40;;
28772;SDS011;15925;51.222;5.678;2023-06-14T15:05:56;0.70;;;0.35;;
28772;SDS011;15925;51.222;5.678;2023-06-14T15:08:22;0.68;;;0.40;;
28772;SDS011;15925;51.222;5.678;2023-06-14T15:10:48;7.00;;;0.60;;
28772;SDS011;15925;51.222;5.678;2023-06-14T15:13:14;0.73;;;0.30;;
28772;SDS011;15925;51.222;5.678;2023-06-14T15:15:40;0.47;;;0.40;;
28772;SDS011;15925;51.222;5.678;2023-06-14T15:18:06;1.35;;;0.60;;
28772;SDS011;15925;51.222;5.678;2023-06-14T15:20:31;6.30;;;0.65;;
28772;SDS011;15925;51.222;5.678;2023-06-14T15:22:57;2.65;;;1.05;;
28772;SDS011;15925;51.222;5.678;2023-06-14T15:25:29;1.45;;;0.47;;
28772;SDS011;15925;51.222;5.678;2023-06-14T15:27:55;1.85;;;0.95;;
28772;SDS011;15925;51.222;5.678;2023-06-14T15:30:21;0.60;;;0.20;;
28772;SDS011;15925;51.222;5.678;2023-06-14T15:32:47;0.60;;;0.55;;
28772;SDS011;15925;51.222;5.678;2023-06-14T15:35:14;0.52;;;0.30;;
28772;SDS011;15925;51.222;5.678;2023-06-14T15:37:41;0.88;;;0.40;;
28772;SDS011;15925;51.222;5.678;2023-06-14T15:40:07;4.00;;;0.80;;